Terminal Aerodrome Forecast
Issued by NWS

Home | Current Version | Previous Version | Text Only | Print | Product List | Glossary On
Versions: 1 2 3 4 5 6 7 8 9 10 11 12 13 14 15 16 17
032
FTUS46 KMTR 101720
TAFOAK
TAF
KOAK 101720Z 1018/1124 VRB03KT P6SM SCT200
     FM102100 29006KT P6SM SCT200
     FM110300 32003KT P6SM SCT200
     FM111100 VRB03KT 6SM BR SCT200
     FM111700 23005KT 6SM HZ SCT200
     FM112100 28006KT P6SM SCT200=

USA.gov is the U.S. government's official web portal to all federal, state and local government web resources and services.